Kichifukuyu — JD3914 — position and weather

sailwx.info

Track history (hours):
 
Tides and Currents Weather Stations Pressure Air Temp Water Temp Dewpoint Dewpoint Depression Visibility Wind Speed Wind Dir Waves Ship Positions

Kichifukuyu

Last reported at 2018-Feb-25 17:30 UTC. Time now 2018-Feb-25 17:41 UTC.
Position N 34°21' E 132°27'.

Length 68 m; draft 3 m.

Type: Cargo ship. MMSI: 431006848.

Date/timePositionNaut miles runAvg speedWind from/ knotsBaromVisibWave heightAir tempDewpointWater temp
2018-Feb-25 17:30N 34°21' E 132°27'0 0.0
2018-Feb-25 16:59N 34°21' E 132°27'0 0.0
2018-Feb-25 16:30N 34°21' E 132°27'0 0.0
2018-Feb-25 15:58N 34°21' E 132°27'0 0.0
2018-Feb-25 15:30N 34°21' E 132°27'0 0.0
2018-Feb-25 15:00N 34°21' E 132°27'0 0.0
2018-Feb-25 14:30N 34°21' E 132°27'0 0.0
2018-Feb-25 14:00N 34°21' E 132°27'0 0.0
2018-Feb-25 13:30N 34°21' E 132°27'0 0.0
2018-Feb-25 13:00N 34°21' E 132°27'0 0.0
2018-Feb-25 12:30N 34°21' E 132°27'0 0.0
2018-Feb-25 11:59N 34°21' E 132°27'0 0.0
2018-Feb-25 11:30N 34°21' E 132°27'0 0.0
2018-Feb-25 11:00N 34°21' E 132°27'0 0.0
2018-Feb-25 10:30N 34°21' E 132°27'0 0.0
2018-Feb-25 10:00N 34°21' E 132°27'0 0.0
2018-Feb-25 09:30N 34°21' E 132°27'0 0.0
2018-Feb-25 09:00N 34°21' E 132°27'0 0.0
2018-Feb-25 08:30N 34°21' E 132°27'0 0.0
2018-Feb-25 08:00N 34°21' E 132°27'0 0.0
2018-Feb-25 07:29N 34°21' E 132°27'0 0.0
2018-Feb-25 07:00N 34°21' E 132°27'0 0.0
2018-Feb-25 06:31N 34°21' E 132°27'0 0.0
2018-Feb-25 06:00N 34°21' E 132°27'0 0.0
2018-Feb-25 05:29N 34°21' E 132°27'0 0.0
2018-Feb-25 04:59N 34°21' E 132°27'0 0.0
2018-Feb-25 04:30N 34°21' E 132°27'0 0.0
2018-Feb-25 04:00N 34°21' E 132°27'0 0.0
2018-Feb-25 03:30N 34°21' E 132°27'0 0.0
2018-Feb-25 03:00N 34°21' E 132°27'0 0.0
2018-Feb-25 02:30N 34°21' E 132°27'0 0.0
2018-Feb-25 02:00N 34°21' E 132°27'0 0.0
2018-Feb-25 01:30N 34°21' E 132°27'0 0.0
2018-Feb-25 01:00N 34°21' E 132°27'0 0.0
2018-Feb-25 00:30N 34°21' E 132°27'0 0.0
2018-Feb-25 00:00N 34°21' E 132°27'0 0.0
2018-Feb-24 23:30N 34°21' E 132°27'0 0.0
2018-Feb-24 23:00N 34°21' E 132°27'0 0.0
2018-Feb-24 22:30N 34°21' E 132°27'0 0.0
2018-Feb-24 22:00N 34°21' E 132°27'0 0.0
2018-Feb-24 21:29N 34°21' E 132°27'0 0.0
2018-Feb-24 21:00N 34°21' E 132°27'0 0.0
2018-Feb-24 20:30N 34°21' E 132°27'0 0.0
2018-Feb-24 20:00N 34°21' E 132°27'0 0.0
2018-Feb-24 19:30N 34°21' E 132°27'0 0.0
2018-Feb-24 19:00N 34°21' E 132°27'0 0.0
2018-Feb-24 18:30N 34°21' E 132°27'0 0.0
2018-Feb-24 17:59N 34°21' E 132°27'0 0.0
2018-Feb-24 17:30N 34°21' E 132°27'0 0.0
2018-Feb-24 17:00N 34°21' E 132°27'0 0.0
2018-Feb-24 16:30N 34°21' E 132°27'0 0.0
2018-Feb-24 16:00N 34°21' E 132°27'0 0.0
2018-Feb-24 15:30N 34°21' E 132°27'0 0.0
2018-Feb-24 15:00N 34°21' E 132°27'0 0.0
2018-Feb-24 14:29N 34°21' E 132°27'0 0.0
2018-Feb-24 14:00N 34°21' E 132°27'0 0.0
2018-Feb-24 13:30N 34°21' E 132°27'0 0.2
2018-Feb-24 13:00N 34°21' E 132°27'4 7.5
2018-Feb-24 12:30N 34°18' E 132°24'510.6
2018-Feb-24 12:00N 34°13' E 132°22'611.3
2018-Feb-24 11:30N 34°08' E 132°24'711.4
2018-Feb-24 10:54N 34°03' E 132°31'410.4
2018-Feb-24 10:30N 34°05' E 132°35'612.2
2018-Feb-24 10:00N 34°11' E 132°38'911.8
2018-Feb-24 09:12N 34°15' E 132°48'96 7.9
2018-Feb-23 21:00N 34°47' E 134°39'0 0.0
2018-Feb-23 14:21N 34°47' E 134°39'1 3.8
2018-Feb-23 14:01N 34°46' E 134°38'1 2.5
2018-Feb-23 13:30N 34°45' E 134°37'0 0.0
2018-Feb-23 13:00N 34°45' E 134°37'0 0.0
2018-Feb-23 12:30N 34°45' E 134°37'0 0.0
2018-Feb-23 12:00N 34°45' E 134°37'0 0.0
2018-Feb-23 11:30N 34°45' E 134°37'0 0.0
2018-Feb-23 11:00N 34°45' E 134°37'5 9.5
2018-Feb-23 10:30N 34°43' E 134°31'712.5
2018-Feb-23 09:55N 34°39' E 134°24'612.9
2018-Feb-23 09:28N 34°37' E 134°17'8612.6
2018-Feb-23 02:41N 34°12' E 132°38'2 0.3
2018-Feb-22 19:01N 34°13' E 132°37'0 0.0
2018-Feb-22 19:00N 34°13' E 132°37'0 0.0
2018-Feb-22 17:52N 34°13' E 132°37'0 0.0
2018-Feb-22 17:21N 34°13' E 132°37'0 0.0
2018-Feb-22 16:58N 34°13' E 132°37'0 0.0
2018-Feb-22 15:10N 34°13' E 132°37'0 0.0
2018-Feb-22 14:59N 34°13' E 132°37'1 0.1
2018-Feb-22 05:33N 34°12' E 132°37'910.8
2018-Feb-22 04:40N 34°15' E 132°48'6510.6
2018-Feb-21 22:32N 34°32' E 134°04'011.2
2018-Feb-21 22:30N 34°32' E 134°05'2611.4
2018-Feb-21 20:10N 34°44' E 134°33'211.0
2018-Feb-21 20:00N 34°45' E 134°35'4 6.7
2018-Feb-21 19:28N 34°47' E 134°38'0 0.0
2018-Feb-21 19:00N 34°47' E 134°38'0 0.0
2018-Feb-21 18:29N 34°47' E 134°38'0 0.0
2018-Feb-21 16:27N 34°47' E 134°38'0 0.0
2018-Feb-21 16:00N 34°47' E 134°38'0 0.0
2018-Feb-21 15:28N 34°47' E 134°38'0 0.0
2018-Feb-21 14:58N 34°47' E 134°38'0 0.0
2018-Feb-21 14:29N 34°47' E 134°38'0 0.0
2018-Feb-21 13:29N 34°47' E 134°38'0 0.0
2018-Feb-21 12:58N 34°47' E 134°38'0 0.0
2018-Feb-21 11:52N 34°47' E 134°38'0 0.0
2018-Feb-21 11:30N 34°47' E 134°38'0 0.0
2018-Feb-21 11:00N 34°47' E 134°38'0 0.0
2018-Feb-21 10:30N 34°47' E 134°38'0 0.0
2018-Feb-21 10:00N 34°47' E 134°38'2 3.2
2018-Feb-21 09:30N 34°45' E 134°38'3 5.0
2018-Feb-21 09:00N 34°44' E 134°41'4 8.1
2018-Feb-21 08:31N 34°42' E 134°45'510.3
2018-Feb-21 08:00N 34°39' E 134°50'5 9.4
2018-Feb-21 07:31N 34°37' E 134°56'510.3
2018-Feb-21 07:00N 34°37' E 135°02'510.7
2018-Feb-21 06:30N 34°36' E 135°08'612.5
2018-Feb-21 06:01N 34°38' E 135°16'612.2
2018-Feb-21 05:30N 34°40' E 135°23'3 6.5
2018-Feb-21 05:00N 34°40' E 135°27'0 0.0
2018-Feb-21 04:31N 34°40' E 135°27'0 0.0
2018-Feb-21 04:01N 34°40' E 135°27'0 0.0
2018-Feb-21 03:30N 34°40' E 135°27'0 0.0
2018-Feb-21 03:00N 34°40' E 135°27'0 0.0
2018-Feb-21 02:30N 34°40' E 135°27'0 0.0
2018-Feb-21 02:00N 34°40' E 135°27'0 0.0
2018-Feb-21 01:30N 34°40' E 135°27'0 0.0
2018-Feb-21 01:00N 34°40' E 135°27'0 0.0
2018-Feb-21 00:31N 34°40' E 135°27'0 0.0
2018-Feb-21 00:01N 34°40' E 135°27'0 0.0
2018-Feb-20 23:30N 34°40' E 135°27'0 0.0
2018-Feb-20 23:00N 34°40' E 135°27'0 0.0
2018-Feb-20 22:31N 34°40' E 135°27'0 0.0
2018-Feb-20 22:00N 34°40' E 135°27'0 0.0
2018-Feb-20 21:30N 34°40' E 135°27'0 0.0
2018-Feb-20 21:01N 34°40' E 135°27'0 0.0
2018-Feb-20 20:30N 34°40' E 135°27'0 0.0
2018-Feb-20 20:00N 34°40' E 135°27'1 2.3
2018-Feb-20 19:31N 34°39' E 135°26'510.4
2018-Feb-20 19:00N 34°36' E 135°21'611.1
2018-Feb-20 18:30N 34°35' E 135°14'611.2
2018-Feb-20 18:01N 34°35' E 135°07'611.6
2018-Feb-20 17:31N 34°37' E 135°01'611.5
2018-Feb-20 17:00N 34°37' E 134°54'611.8
2018-Feb-20 16:30N 34°40' E 134°48'611.6
2018-Feb-20 16:00N 34°43' E 134°42'5 8.6
2018-Feb-20 15:27N 34°47' E 134°38'0 0.6
2018-Feb-20 14:58N 34°47' E 134°38'0 0.0
2018-Feb-20 14:27N 34°47' E 134°38'0 0.0
2018-Feb-20 13:32N 34°47' E 134°38'0 0.1
2018-Feb-20 13:27N 34°47' E 134°38'0 0.0
2018-Feb-20 12:59N 34°47' E 134°38'0 0.0
2018-Feb-20 11:55N 34°47' E 134°38'0 0.0
2018-Feb-20 11:30N 34°47' E 134°38'0 0.0
2018-Feb-20 10:59N 34°47' E 134°38'0 0.0
2018-Feb-20 10:29N 34°47' E 134°38'0 0.0
2018-Feb-20 08:40N 34°47' E 134°38'0 0.0
2018-Feb-20 08:30N 34°47' E 134°38'0 0.0
2018-Feb-20 07:43N 34°47' E 134°38'0 0.0
2018-Feb-20 06:58N 34°47' E 134°38'3 5.5
2018-Feb-20 06:26N 34°44' E 134°40'511.8
2018-Feb-20 06:00N 34°42' E 134°45'611.1
2018-Feb-20 05:29N 34°39' E 134°51'510.9
2018-Feb-20 05:01N 34°37' E 134°57'611.7
2018-Feb-20 04:30N 34°36' E 135°04'612.0
2018-Feb-20 04:01N 34°35' E 135°11'611.8
2018-Feb-20 03:30N 34°33' E 135°18'510.1
2018-Feb-20 03:00N 34°31' E 135°24'0 0.1
2018-Feb-20 02:30N 34°31' E 135°24'0 0.0
2018-Feb-20 02:01N 34°31' E 135°24'0 0.0
2018-Feb-20 01:30N 34°31' E 135°24'0 0.0
2018-Feb-20 01:00N 34°31' E 135°24'0 0.0
2018-Feb-20 00:30N 34°31' E 135°24'0 0.0
2018-Feb-20 00:00N 34°31' E 135°24'0 0.0
2018-Feb-19 23:31N 34°31' E 135°24'0 0.0
2018-Feb-19 23:00N 34°31' E 135°24'1 2.4
2018-Feb-19 22:30N 34°32' E 135°23'2 3.3
2018-Feb-19 22:00N 34°31' E 135°25'0 0.0
2018-Feb-19 21:30N 34°31' E 135°25'0 0.0
2018-Feb-19 21:00N 34°31' E 135°25'0 0.0
2018-Feb-19 20:30N 34°31' E 135°25'0 0.0
2018-Feb-19 20:00N 34°31' E 135°25'0 0.0
2018-Feb-19 19:31N 34°31' E 135°25'0 0.0
2018-Feb-19 19:00N 34°31' E 135°25'0 0.0
2018-Feb-19 18:31N 34°31' E 135°25'0 0.0
2018-Feb-19 18:01N 34°31' E 135°25'0 0.0
2018-Feb-19 17:31N 34°31' E 135°25'0 0.0
2018-Feb-19 17:01N 34°31' E 135°25'0 0.0
2018-Feb-19 16:30N 34°31' E 135°25'0 0.0
2018-Feb-19 16:00N 34°31' E 135°25'0 0.0
2018-Feb-19 15:30N 34°31' E 135°25'0 0.0
2018-Feb-19 15:00N 34°31' E 135°25'0 0.0
2018-Feb-19 14:30N 34°31' E 135°25'0 0.0
2018-Feb-19 14:01N 34°31' E 135°25'0 0.0
2018-Feb-19 13:30N 34°31' E 135°25'0 0.0
2018-Feb-19 13:00N 34°31' E 135°25'0 0.0
2018-Feb-19 12:30N 34°31' E 135°25'0 0.0
2018-Feb-19 12:00N 34°31' E 135°25'0 0.0
2018-Feb-19 11:31N 34°31' E 135°25'0 0.0
2018-Feb-19 11:01N 34°31' E 135°25'0 0.0
2018-Feb-19 10:31N 34°31' E 135°25'0 0.0
2018-Feb-19 10:01N 34°31' E 135°25'0 0.0
2018-Feb-19 09:30N 34°31' E 135°25'0 0.0
2018-Feb-19 09:00N 34°31' E 135°25'0 0.0
2018-Feb-19 08:30N 34°31' E 135°25'0 0.0
2018-Feb-19 08:00N 34°31' E 135°25'0 0.0
2018-Feb-19 07:30N 34°31' E 135°25'0 0.0
2018-Feb-19 06:59N 34°31' E 135°25'0 0.0
2018-Feb-19 06:31N 34°31' E 135°25'0 0.0
2018-Feb-19 06:00N 34°31' E 135°25'0 0.0
2018-Feb-19 05:30N 34°31' E 135°25'0 0.0
2018-Feb-19 05:00N 34°31' E 135°25'0 0.0
2018-Feb-19 04:30N 34°31' E 135°25'0 0.0
2018-Feb-19 04:01N 34°31' E 135°25'0 0.0
2018-Feb-19 03:30N 34°31' E 135°25'0 0.0
2018-Feb-19 03:01N 34°31' E 135°25'0 0.0
2018-Feb-19 02:31N 34°31' E 135°25'0 0.0
2018-Feb-19 02:00N 34°31' E 135°25'0 0.0
2018-Feb-19 01:30N 34°31' E 135°25'0 0.0
2018-Feb-19 01:01N 34°31' E 135°25'0 0.0
2018-Feb-19 00:31N 34°31' E 135°25'0 0.0
2018-Feb-19 00:01N 34°31' E 135°25'0 0.0
2018-Feb-18 23:30N 34°31' E 135°25'0 0.0
2018-Feb-18 23:00N 34°31' E 135°25'0 0.0
2018-Feb-18 22:31N 34°31' E 135°25'0 0.0
2018-Feb-18 22:00N 34°31' E 135°25'0 0.0
2018-Feb-18 21:30N 34°31' E 135°25'0 0.0
2018-Feb-18 21:00N 34°31' E 135°25'0 0.0
2018-Feb-18 20:30N 34°31' E 135°25'0 0.0
2018-Feb-18 20:00N 34°31' E 135°25'0 0.0
2018-Feb-18 19:31N 34°31' E 135°25'0 0.0
2018-Feb-18 19:00N 34°31' E 135°25'0 0.0
2018-Feb-18 18:30N 34°31' E 135°25'0 0.0
2018-Feb-18 18:00N 34°31' E 135°25'0 0.0
2018-Feb-18 17:30N 34°31' E 135°25'0 0.0
2018-Feb-18 17:00N 34°31' E 135°25'0 0.0
2018-Feb-18 16:30N 34°31' E 135°25'0 0.0
2018-Feb-18 16:00N 34°31' E 135°25'0 0.0
2018-Feb-18 15:30N 34°31' E 135°25'0 0.0
2018-Feb-18 15:01N 34°31' E 135°25'0 0.0
2018-Feb-18 14:30N 34°31' E 135°25'0 0.0
2018-Feb-18 14:01N 34°31' E 135°25'0 0.0
2018-Feb-18 13:30N 34°31' E 135°25'0 0.0
2018-Feb-18 13:00N 34°31' E 135°25'0 0.0
2018-Feb-18 12:30N 34°31' E 135°25'0 0.0
2018-Feb-18 12:00N 34°31' E 135°25'0 0.0
2018-Feb-18 11:30N 34°31' E 135°25'0 1.0
2018-Feb-18 11:00N 34°31' E 135°24'5 9.8
2018-Feb-18 10:30N 34°33' E 135°19'611.4
2018-Feb-18 10:00N 34°34' E 135°12'612.5
2018-Feb-18 09:31N 34°35' E 135°04'612.1
2018-Feb-18 09:00N 34°36' E 134°57'612.3
2018-Feb-18 08:30N 34°39' E 134°50'712.3
2018-Feb-18 07:57N 34°43' E 134°43'6 9.4
2018-Feb-18 07:18N 34°47' E 134°38'0 0.1
2018-Feb-18 01:19N 34°47' E 134°38'0 0.0
2018-Feb-18 00:06N 34°47' E 134°39'0 1.2
2018-Feb-18 00:00N 34°47' E 134°38'2 3.5
2018-Feb-17 23:30N 34°46' E 134°37'1 2.0
2018-Feb-17 23:00N 34°45' E 134°37'0 0.0
2018-Feb-17 22:30N 34°45' E 134°37'0 0.1
2018-Feb-17 22:00N 34°45' E 134°37'0 0.0
2018-Feb-17 21:30N 34°45' E 134°37'0 0.0
2018-Feb-17 21:00N 34°45' E 134°37'0 0.0
2018-Feb-17 20:30N 34°45' E 134°37'0 0.0
2018-Feb-17 20:00N 34°45' E 134°37'0 0.0
2018-Feb-17 19:30N 34°45' E 134°37'0 0.0
2018-Feb-17 19:00N 34°45' E 134°37'0 0.0
2018-Feb-17 18:30N 34°45' E 134°37'0 0.0
2018-Feb-17 18:00N 34°45' E 134°37'0 0.0
2018-Feb-17 17:30N 34°45' E 134°37'0 0.0
2018-Feb-17 17:00N 34°45' E 134°37'0 0.0
2018-Feb-17 16:30N 34°45' E 134°37'0 0.0
2018-Feb-17 16:00N 34°45' E 134°37'0 0.1
2018-Feb-17 15:30N 34°45' E 134°37'611.0
2018-Feb-17 14:59N 34°43' E 134°30'812.4
2018-Feb-17 14:19N 34°39' E 134°22'412.4
2018-Feb-17 13:59N 34°37' E 134°17'8610.3
2018-Feb-17 05:36N 34°10' E 132°38'110.9
2018-Feb-17 05:30N 34°09' E 132°37'12 7.7
2018-Feb-17 03:57N 34°09' E 132°23'612.8
2018-Feb-17 03:30N 34°15' E 132°22'612.0
2018-Feb-17 03:00N 34°18' E 132°28'3 5.1
2018-Feb-17 02:30N 34°20' E 132°30'0 0.0
2018-Feb-17 02:00N 34°20' E 132°30'0 0.0
2018-Feb-17 01:30N 34°20' E 132°30'0 0.0
2018-Feb-17 01:00N 34°20' E 132°30'0 0.0
2018-Feb-17 00:30N 34°20' E 132°30'0 0.0
2018-Feb-17 00:00N 34°20' E 132°30'0 0.0
2018-Feb-16 23:30N 34°20' E 132°30'0 0.0
2018-Feb-16 23:00N 34°20' E 132°30'0 0.0
2018-Feb-16 22:30N 34°20' E 132°30'0 0.2
2018-Feb-16 22:00N 34°20' E 132°30'0 0.3
2018-Feb-16 21:30N 34°20' E 132°30'0 0.0
2018-Feb-16 21:00N 34°20' E 132°30'0 0.0
2018-Feb-16 20:30N 34°20' E 132°30'0 0.0
2018-Feb-16 20:00N 34°20' E 132°30'0 0.0
2018-Feb-16 19:30N 34°20' E 132°30'0 0.0
2018-Feb-16 19:00N 34°20' E 132°30'0 0.0
2018-Feb-16 18:30N 34°20' E 132°30'0 0.0
2018-Feb-16 18:00N 34°20' E 132°30'0 0.0
2018-Feb-16 17:30N 34°20' E 132°30'0 0.0
2018-Feb-16 17:00N 34°20' E 132°30'0 0.0
2018-Feb-16 16:30N 34°20' E 132°30'0 0.0
2018-Feb-16 16:00N 34°20' E 132°30'3 5.4
2018-Feb-16 15:30N 34°18' E 132°28'510.6
2018-Feb-16 15:00N 34°15' E 132°22'611.5
2018-Feb-16 14:28N 34°09' E 132°23'811.5
2018-Feb-16 13:44N 34°03' E 132°30'3 9.1
2018-Feb-16 13:24N 34°04' E 132°34'511.1
2018-Feb-16 13:00N 34°08' E 132°37'12 9.6
2018-Feb-16 11:45N 34°15' E 132°48'6410.2
2018-Feb-16 05:28N 34°31' E 134°03'2110.8
2018-Feb-16 03:30N 34°42' E 134°26'1110.4
2018-Feb-16 02:24N 34°47' E 134°38'0 0.1
2018-Feb-16 01:56N 34°47' E 134°38'0 0.0
2018-Feb-16 01:30N 34°47' E 134°38'0 0.0
2018-Feb-16 00:59N 34°47' E 134°38'0 0.0
2018-Feb-16 00:28N 34°47' E 134°38'0 0.0
2018-Feb-15 23:57N 34°47' E 134°38'0 0.0
2018-Feb-15 23:16N 34°47' E 134°38'0 0.0
2018-Feb-15 21:34N 34°47' E 134°38'0 0.0
2018-Feb-15 20:37N 34°47' E 134°38'0 0.0
2018-Feb-15 20:29N 34°47' E 134°38'0 0.0
2018-Feb-15 19:57N 34°47' E 134°38'0 0.0
2018-Feb-15 19:22N 34°47' E 134°38'0 0.0
2018-Feb-15 18:54N 34°47' E 134°38'0 0.0
2018-Feb-15 18:25N 34°47' E 134°38'0 0.0
2018-Feb-15 17:39N 34°47' E 134°38'  
Track history (hours):
 
Tides and Currents Weather Stations Pressure Air Temp Water Temp Dewpoint Dewpoint Depression Visibility Wind Speed Wind Dir Waves Ship Positions

Kichifukuyu

Last reported at 2018-Feb-25 17:30 UTC. Time now 2018-Feb-25 17:41 UTC.
Position N 34°21' E 132°27'.

Length 68 m; draft 3 m.

Type: Cargo ship. MMSI: 431006848.

Date/timePositionNaut miles runAvg speedWind from/ knotsBaromVisibWave heightAir tempDewpointWater temp
2018-Feb-25 17:30N 34°21' E 132°27'0 0.0
2018-Feb-25 16:59N 34°21' E 132°27'0 0.0
2018-Feb-25 16:30N 34°21' E 132°27'0 0.0
2018-Feb-25 15:58N 34°21' E 132°27'0 0.0
2018-Feb-25 15:30N 34°21' E 132°27'0 0.0
2018-Feb-25 15:00N 34°21' E 132°27'0 0.0
2018-Feb-25 14:30N 34°21' E 132°27'0 0.0
2018-Feb-25 14:00N 34°21' E 132°27'0 0.0
2018-Feb-25 13:30N 34°21' E 132°27'0 0.0
2018-Feb-25 13:00N 34°21' E 132°27'0 0.0
2018-Feb-25 12:30N 34°21' E 132°27'0 0.0
2018-Feb-25 11:59N 34°21' E 132°27'0 0.0
2018-Feb-25 11:30N 34°21' E 132°27'0 0.0
2018-Feb-25 11:00N 34°21' E 132°27'0 0.0
2018-Feb-25 10:30N 34°21' E 132°27'0 0.0
2018-Feb-25 10:00N 34°21' E 132°27'0 0.0
2018-Feb-25 09:30N 34°21' E 132°27'0 0.0
2018-Feb-25 09:00N 34°21' E 132°27'0 0.0
2018-Feb-25 08:30N 34°21' E 132°27'0 0.0
2018-Feb-25 08:00N 34°21' E 132°27'0 0.0
2018-Feb-25 07:29N 34°21' E 132°27'0 0.0
2018-Feb-25 07:00N 34°21' E 132°27'0 0.0
2018-Feb-25 06:31N 34°21' E 132°27'0 0.0
2018-Feb-25 06:00N 34°21' E 132°27'0 0.0
2018-Feb-25 05:29N 34°21' E 132°27'0 0.0
2018-Feb-25 04:59N 34°21' E 132°27'0 0.0
2018-Feb-25 04:30N 34°21' E 132°27'0 0.0
2018-Feb-25 04:00N 34°21' E 132°27'0 0.0
2018-Feb-25 03:30N 34°21' E 132°27'0 0.0
2018-Feb-25 03:00N 34°21' E 132°27'0 0.0
2018-Feb-25 02:30N 34°21' E 132°27'0 0.0
2018-Feb-25 02:00N 34°21' E 132°27'0 0.0
2018-Feb-25 01:30N 34°21' E 132°27'0 0.0
2018-Feb-25 01:00N 34°21' E 132°27'0 0.0
2018-Feb-25 00:30N 34°21' E 132°27'0 0.0
2018-Feb-25 00:00N 34°21' E 132°27'0 0.0
2018-Feb-24 23:30N 34°21' E 132°27'0 0.0
2018-Feb-24 23:00N 34°21' E 132°27'0 0.0
2018-Feb-24 22:30N 34°21' E 132°27'0 0.0
2018-Feb-24 22:00N 34°21' E 132°27'0 0.0
2018-Feb-24 21:29N 34°21' E 132°27'0 0.0
2018-Feb-24 21:00N 34°21' E 132°27'0 0.0
2018-Feb-24 20:30N 34°21' E 132°27'0 0.0
2018-Feb-24 20:00N 34°21' E 132°27'0 0.0
2018-Feb-24 19:30N 34°21' E 132°27'0 0.0
2018-Feb-24 19:00N 34°21' E 132°27'0 0.0
2018-Feb-24 18:30N 34°21' E 132°27'0 0.0
2018-Feb-24 17:59N 34°21' E 132°27'0 0.0
2018-Feb-24 17:30N 34°21' E 132°27'0 0.0
2018-Feb-24 17:00N 34°21' E 132°27'0 0.0
2018-Feb-24 16:30N 34°21' E 132°27'0 0.0
2018-Feb-24 16:00N 34°21' E 132°27'0 0.0
2018-Feb-24 15:30N 34°21' E 132°27'0 0.0
2018-Feb-24 15:00N 34°21' E 132°27'0 0.0
2018-Feb-24 14:29N 34°21' E 132°27'0 0.0
2018-Feb-24 14:00N 34°21' E 132°27'0 0.0
2018-Feb-24 13:30N 34°21' E 132°27'0 0.2
2018-Feb-24 13:00N 34°21' E 132°27'4 7.5
2018-Feb-24 12:30N 34°18' E 132°24'510.6
2018-Feb-24 12:00N 34°13' E 132°22'611.3
2018-Feb-24 11:30N 34°08' E 132°24'711.4
2018-Feb-24 10:54N 34°03' E 132°31'410.4
2018-Feb-24 10:30N 34°05' E 132°35'612.2
2018-Feb-24 10:00N 34°11' E 132°38'911.8
2018-Feb-24 09:12N 34°15' E 132°48'96 7.9
2018-Feb-23 21:00N 34°47' E 134°39'0 0.0
2018-Feb-23 14:21N 34°47' E 134°39'1 3.8
2018-Feb-23 14:01N 34°46' E 134°38'1 2.5
2018-Feb-23 13:30N 34°45' E 134°37'0 0.0
2018-Feb-23 13:00N 34°45' E 134°37'0 0.0
2018-Feb-23 12:30N 34°45' E 134°37'0 0.0
2018-Feb-23 12:00N 34°45' E 134°37'0 0.0
2018-Feb-23 11:30N 34°45' E 134°37'0 0.0
2018-Feb-23 11:00N 34°45' E 134°37'5 9.5
2018-Feb-23 10:30N 34°43' E 134°31'712.5
2018-Feb-23 09:55N 34°39' E 134°24'612.9
2018-Feb-23 09:28N 34°37' E 134°17'8612.6
2018-Feb-23 02:41N 34°12' E 132°38'2 0.3
2018-Feb-22 19:01N 34°13' E 132°37'0 0.0
2018-Feb-22 19:00N 34°13' E 132°37'0 0.0
2018-Feb-22 17:52N 34°13' E 132°37'0 0.0
2018-Feb-22 17:21N 34°13' E 132°37'0 0.0
2018-Feb-22 16:58N 34°13' E 132°37'0 0.0
2018-Feb-22 15:10N 34°13' E 132°37'0 0.0
2018-Feb-22 14:59N 34°13' E 132°37'1 0.1
2018-Feb-22 05:33N 34°12' E 132°37'910.8
2018-Feb-22 04:40N 34°15' E 132°48'6510.6
2018-Feb-21 22:32N 34°32' E 134°04'011.2
2018-Feb-21 22:30N 34°32' E 134°05'2611.4
2018-Feb-21 20:10N 34°44' E 134°33'211.0
2018-Feb-21 20:00N 34°45' E 134°35'4 6.7
2018-Feb-21 19:28N 34°47' E 134°38'0 0.0
2018-Feb-21 19:00N 34°47' E 134°38'0 0.0
2018-Feb-21 18:29N 34°47' E 134°38'0 0.0
2018-Feb-21 16:27N 34°47' E 134°38'0 0.0
2018-Feb-21 16:00N 34°47' E 134°38'0 0.0
2018-Feb-21 15:28N 34°47' E 134°38'0 0.0
2018-Feb-21 14:58N 34°47' E 134°38'0 0.0
2018-Feb-21 14:29N 34°47' E 134°38'0 0.0
2018-Feb-21 13:29N 34°47' E 134°38'0 0.0
2018-Feb-21 12:58N 34°47' E 134°38'0 0.0
2018-Feb-21 11:52N 34°47' E 134°38'0 0.0
2018-Feb-21 11:30N 34°47' E 134°38'0 0.0
2018-Feb-21 11:00N 34°47' E 134°38'0 0.0
2018-Feb-21 10:30N 34°47' E 134°38'0 0.0
2018-Feb-21 10:00N 34°47' E 134°38'2 3.2
2018-Feb-21 09:30N 34°45' E 134°38'3 5.0
2018-Feb-21 09:00N 34°44' E 134°41'4 8.1
2018-Feb-21 08:31N 34°42' E 134°45'510.3
2018-Feb-21 08:00N 34°39' E 134°50'5 9.4
2018-Feb-21 07:31N 34°37' E 134°56'510.3
2018-Feb-21 07:00N 34°37' E 135°02'510.7
2018-Feb-21 06:30N 34°36' E 135°08'612.5
2018-Feb-21 06:01N 34°38' E 135°16'612.2
2018-Feb-21 05:30N 34°40' E 135°23'3 6.5
2018-Feb-21 05:00N 34°40' E 135°27'0 0.0
2018-Feb-21 04:31N 34°40' E 135°27'0 0.0
2018-Feb-21 04:01N 34°40' E 135°27'0 0.0
2018-Feb-21 03:30N 34°40' E 135°27'0 0.0
2018-Feb-21 03:00N 34°40' E 135°27'0 0.0
2018-Feb-21 02:30N 34°40' E 135°27'0 0.0
2018-Feb-21 02:00N 34°40' E 135°27'0 0.0
2018-Feb-21 01:30N 34°40' E 135°27'0 0.0
2018-Feb-21 01:00N 34°40' E 135°27'0 0.0
2018-Feb-21 00:31N 34°40' E 135°27'0 0.0
2018-Feb-21 00:01N 34°40' E 135°27'0 0.0
2018-Feb-20 23:30N 34°40' E 135°27'0 0.0
2018-Feb-20 23:00N 34°40' E 135°27'0 0.0
2018-Feb-20 22:31N 34°40' E 135°27'0 0.0
2018-Feb-20 22:00N 34°40' E 135°27'0 0.0
2018-Feb-20 21:30N 34°40' E 135°27'0 0.0
2018-Feb-20 21:01N 34°40' E 135°27'0 0.0
2018-Feb-20 20:30N 34°40' E 135°27'0 0.0
2018-Feb-20 20:00N 34°40' E 135°27'1 2.3
2018-Feb-20 19:31N 34°39' E 135°26'510.4
2018-Feb-20 19:00N 34°36' E 135°21'611.1
2018-Feb-20 18:30N 34°35' E 135°14'611.2
2018-Feb-20 18:01N 34°35' E 135°07'611.6
2018-Feb-20 17:31N 34°37' E 135°01'611.5
2018-Feb-20 17:00N 34°37' E 134°54'611.8
2018-Feb-20 16:30N 34°40' E 134°48'611.6
2018-Feb-20 16:00N 34°43' E 134°42'5 8.6
2018-Feb-20 15:27N 34°47' E 134°38'0 0.6
2018-Feb-20 14:58N 34°47' E 134°38'0 0.0
2018-Feb-20 14:27N 34°47' E 134°38'0 0.0
2018-Feb-20 13:32N 34°47' E 134°38'0 0.1
2018-Feb-20 13:27N 34°47' E 134°38'0 0.0
2018-Feb-20 12:59N 34°47' E 134°38'0 0.0
2018-Feb-20 11:55N 34°47' E 134°38'0 0.0
2018-Feb-20 11:30N 34°47' E 134°38'0 0.0
2018-Feb-20 10:59N 34°47' E 134°38'0 0.0
2018-Feb-20 10:29N 34°47' E 134°38'0 0.0
2018-Feb-20 08:40N 34°47' E 134°38'0 0.0
2018-Feb-20 08:30N 34°47' E 134°38'0 0.0
2018-Feb-20 07:43N 34°47' E 134°38'0 0.0
2018-Feb-20 06:58N 34°47' E 134°38'3 5.5
2018-Feb-20 06:26N 34°44' E 134°40'511.8
2018-Feb-20 06:00N 34°42' E 134°45'611.1
2018-Feb-20 05:29N 34°39' E 134°51'510.9
2018-Feb-20 05:01N 34°37' E 134°57'611.7
2018-Feb-20 04:30N 34°36' E 135°04'612.0
2018-Feb-20 04:01N 34°35' E 135°11'611.8
2018-Feb-20 03:30N 34°33' E 135°18'510.1
2018-Feb-20 03:00N 34°31' E 135°24'0 0.1
2018-Feb-20 02:30N 34°31' E 135°24'0 0.0
2018-Feb-20 02:01N 34°31' E 135°24'0 0.0
2018-Feb-20 01:30N 34°31' E 135°24'0 0.0
2018-Feb-20 01:00N 34°31' E 135°24'0 0.0
2018-Feb-20 00:30N 34°31' E 135°24'0 0.0
2018-Feb-20 00:00N 34°31' E 135°24'0 0.0
2018-Feb-19 23:31N 34°31' E 135°24'0 0.0
2018-Feb-19 23:00N 34°31' E 135°24'1 2.4
2018-Feb-19 22:30N 34°32' E 135°23'2 3.3
2018-Feb-19 22:00N 34°31' E 135°25'0 0.0
2018-Feb-19 21:30N 34°31' E 135°25'0 0.0
2018-Feb-19 21:00N 34°31' E 135°25'0 0.0
2018-Feb-19 20:30N 34°31' E 135°25'0 0.0
2018-Feb-19 20:00N 34°31' E 135°25'0 0.0
2018-Feb-19 19:31N 34°31' E 135°25'0 0.0
2018-Feb-19 19:00N 34°31' E 135°25'0 0.0
2018-Feb-19 18:31N 34°31' E 135°25'0 0.0
2018-Feb-19 18:01N 34°31' E 135°25'0 0.0
2018-Feb-19 17:31N 34°31' E 135°25'0 0.0
2018-Feb-19 17:01N 34°31' E 135°25'0 0.0
2018-Feb-19 16:30N 34°31' E 135°25'0 0.0
2018-Feb-19 16:00N 34°31' E 135°25'0 0.0
2018-Feb-19 15:30N 34°31' E 135°25'0 0.0
2018-Feb-19 15:00N 34°31' E 135°25'0 0.0
2018-Feb-19 14:30N 34°31' E 135°25'0 0.0
2018-Feb-19 14:01N 34°31' E 135°25'0 0.0
2018-Feb-19 13:30N 34°31' E 135°25'0 0.0
2018-Feb-19 13:00N 34°31' E 135°25'0 0.0
2018-Feb-19 12:30N 34°31' E 135°25'0 0.0
2018-Feb-19 12:00N 34°31' E 135°25'0 0.0
2018-Feb-19 11:31N 34°31' E 135°25'0 0.0
2018-Feb-19 11:01N 34°31' E 135°25'0 0.0
2018-Feb-19 10:31N 34°31' E 135°25'0 0.0
2018-Feb-19 10:01N 34°31' E 135°25'0 0.0
2018-Feb-19 09:30N 34°31' E 135°25'0 0.0
2018-Feb-19 09:00N 34°31' E 135°25'0 0.0
2018-Feb-19 08:30N 34°31' E 135°25'0 0.0
2018-Feb-19 08:00N 34°31' E 135°25'0 0.0
2018-Feb-19 07:30N 34°31' E 135°25'0 0.0
2018-Feb-19 06:59N 34°31' E 135°25'0 0.0
2018-Feb-19 06:31N 34°31' E 135°25'0 0.0
2018-Feb-19 06:00N 34°31' E 135°25'0 0.0
2018-Feb-19 05:30N 34°31' E 135°25'0 0.0
2018-Feb-19 05:00N 34°31' E 135°25'0 0.0
2018-Feb-19 04:30N 34°31' E 135°25'0 0.0
2018-Feb-19 04:01N 34°31' E 135°25'0 0.0
2018-Feb-19 03:30N 34°31' E 135°25'0 0.0
2018-Feb-19 03:01N 34°31' E 135°25'0 0.0
2018-Feb-19 02:31N 34°31' E 135°25'0 0.0
2018-Feb-19 02:00N 34°31' E 135°25'0 0.0
2018-Feb-19 01:30N 34°31' E 135°25'0 0.0
2018-Feb-19 01:01N 34°31' E 135°25'0 0.0
2018-Feb-19 00:31N 34°31' E 135°25'0 0.0
2018-Feb-19 00:01N 34°31' E 135°25'0 0.0
2018-Feb-18 23:30N 34°31' E 135°25'0 0.0
2018-Feb-18 23:00N 34°31' E 135°25'0 0.0
2018-Feb-18 22:31N 34°31' E 135°25'0 0.0
2018-Feb-18 22:00N 34°31' E 135°25'0 0.0
2018-Feb-18 21:30N 34°31' E 135°25'0 0.0
2018-Feb-18 21:00N 34°31' E 135°25'0 0.0
2018-Feb-18 20:30N 34°31' E 135°25'0 0.0
2018-Feb-18 20:00N 34°31' E 135°25'0 0.0
2018-Feb-18 19:31N 34°31' E 135°25'0 0.0
2018-Feb-18 19:00N 34°31' E 135°25'0 0.0
2018-Feb-18 18:30N 34°31' E 135°25'0 0.0
2018-Feb-18 18:00N 34°31' E 135°25'0 0.0
2018-Feb-18 17:30N 34°31' E 135°25'0 0.0
2018-Feb-18 17:00N 34°31' E 135°25'0 0.0
2018-Feb-18 16:30N 34°31' E 135°25'0 0.0
2018-Feb-18 16:00N 34°31' E 135°25'0 0.0
2018-Feb-18 15:30N 34°31' E 135°25'0 0.0
2018-Feb-18 15:01N 34°31' E 135°25'0 0.0
2018-Feb-18 14:30N 34°31' E 135°25'0 0.0
2018-Feb-18 14:01N 34°31' E 135°25'0 0.0
2018-Feb-18 13:30N 34°31' E 135°25'0 0.0
2018-Feb-18 13:00N 34°31' E 135°25'0 0.0
2018-Feb-18 12:30N 34°31' E 135°25'0 0.0
2018-Feb-18 12:00N 34°31' E 135°25'0 0.0
2018-Feb-18 11:30N 34°31' E 135°25'0 1.0
2018-Feb-18 11:00N 34°31' E 135°24'5 9.8
2018-Feb-18 10:30N 34°33' E 135°19'611.4
2018-Feb-18 10:00N 34°34' E 135°12'612.5
2018-Feb-18 09:31N 34°35' E 135°04'612.1
2018-Feb-18 09:00N 34°36' E 134°57'612.3
2018-Feb-18 08:30N 34°39' E 134°50'712.3
2018-Feb-18 07:57N 34°43' E 134°43'6 9.4
2018-Feb-18 07:18N 34°47' E 134°38'0 0.1
2018-Feb-18 01:19N 34°47' E 134°38'0 0.0
2018-Feb-18 00:06N 34°47' E 134°39'0 1.2
2018-Feb-18 00:00N 34°47' E 134°38'2 3.5
2018-Feb-17 23:30N 34°46' E 134°37'1 2.0
2018-Feb-17 23:00N 34°45' E 134°37'0 0.0
2018-Feb-17 22:30N 34°45' E 134°37'0 0.1
2018-Feb-17 22:00N 34°45' E 134°37'0 0.0
2018-Feb-17 21:30N 34°45' E 134°37'0 0.0
2018-Feb-17 21:00N 34°45' E 134°37'0 0.0
2018-Feb-17 20:30N 34°45' E 134°37'0 0.0
2018-Feb-17 20:00N 34°45' E 134°37'0 0.0
2018-Feb-17 19:30N 34°45' E 134°37'0 0.0
2018-Feb-17 19:00N 34°45' E 134°37'0 0.0
2018-Feb-17 18:30N 34°45' E 134°37'0 0.0
2018-Feb-17 18:00N 34°45' E 134°37'0 0.0
2018-Feb-17 17:30N 34°45' E 134°37'0 0.0
2018-Feb-17 17:00N 34°45' E 134°37'0 0.0
2018-Feb-17 16:30N 34°45' E 134°37'0 0.0
2018-Feb-17 16:00N 34°45' E 134°37'0 0.1
2018-Feb-17 15:30N 34°45' E 134°37'611.0
2018-Feb-17 14:59N 34°43' E 134°30'812.4
2018-Feb-17 14:19N 34°39' E 134°22'412.4
2018-Feb-17 13:59N 34°37' E 134°17'8610.3
2018-Feb-17 05:36N 34°10' E 132°38'110.9
2018-Feb-17 05:30N 34°09' E 132°37'12 7.7
2018-Feb-17 03:57N 34°09' E 132°23'612.8
2018-Feb-17 03:30N 34°15' E 132°22'612.0
2018-Feb-17 03:00N 34°18' E 132°28'3 5.1
2018-Feb-17 02:30N 34°20' E 132°30'0 0.0
2018-Feb-17 02:00N 34°20' E 132°30'0 0.0
2018-Feb-17 01:30N 34°20' E 132°30'0 0.0
2018-Feb-17 01:00N 34°20' E 132°30'0 0.0
2018-Feb-17 00:30N 34°20' E 132°30'0 0.0
2018-Feb-17 00:00N 34°20' E 132°30'0 0.0
2018-Feb-16 23:30N 34°20' E 132°30'0 0.0
2018-Feb-16 23:00N 34°20' E 132°30'0 0.0
2018-Feb-16 22:30N 34°20' E 132°30'0 0.2
2018-Feb-16 22:00N 34°20' E 132°30'0 0.3
2018-Feb-16 21:30N 34°20' E 132°30'0 0.0
2018-Feb-16 21:00N 34°20' E 132°30'0 0.0
2018-Feb-16 20:30N 34°20' E 132°30'0 0.0
2018-Feb-16 20:00N 34°20' E 132°30'0 0.0
2018-Feb-16 19:30N 34°20' E 132°30'0 0.0
2018-Feb-16 19:00N 34°20' E 132°30'0 0.0
2018-Feb-16 18:30N 34°20' E 132°30'0 0.0
2018-Feb-16 18:00N 34°20' E 132°30'0 0.0
2018-Feb-16 17:30N 34°20' E 132°30'0 0.0
2018-Feb-16 17:00N 34°20' E 132°30'0 0.0
2018-Feb-16 16:30N 34°20' E 132°30'0 0.0
2018-Feb-16 16:00N 34°20' E 132°30'3 5.4
2018-Feb-16 15:30N 34°18' E 132°28'510.6
2018-Feb-16 15:00N 34°15' E 132°22'611.5
2018-Feb-16 14:28N 34°09' E 132°23'811.5
2018-Feb-16 13:44N 34°03' E 132°30'3 9.1
2018-Feb-16 13:24N 34°04' E 132°34'511.1
2018-Feb-16 13:00N 34°08' E 132°37'12 9.6
2018-Feb-16 11:45N 34°15' E 132°48'6410.2
2018-Feb-16 05:28N 34°31' E 134°03'2110.8
2018-Feb-16 03:30N 34°42' E 134°26'1110.4
2018-Feb-16 02:24N 34°47' E 134°38'0 0.1
2018-Feb-16 01:56N 34°47' E 134°38'0 0.0
2018-Feb-16 01:30N 34°47' E 134°38'0 0.0
2018-Feb-16 00:59N 34°47' E 134°38'0 0.0
2018-Feb-16 00:28N 34°47' E 134°38'0 0.0
2018-Feb-15 23:57N 34°47' E 134°38'0 0.0
2018-Feb-15 23:16N 34°47' E 134°38'0 0.0
2018-Feb-15 21:34N 34°47' E 134°38'0 0.0
2018-Feb-15 20:37N 34°47' E 134°38'0 0.0
2018-Feb-15 20:29N 34°47' E 134°38'0 0.0
2018-Feb-15 19:57N 34°47' E 134°38'0 0.0
2018-Feb-15 19:22N 34°47' E 134°38'0 0.0
2018-Feb-15 18:54N 34°47' E 134°38'0 0.0
2018-Feb-15 18:25N 34°47' E 134°38'0 0.0
2018-Feb-15 17:39N 34°47' E 134°38'  

Dump ship's entire track history